Paraibuna, Brazil
Current Conditions -  °F | °C
As of 3:00 PM on Saturday 22 Nov 2014 (Local Time) from SBSJ Reporting Station
Clear Clear  
Wind Chill: 88°   Ceiling: Unl
Heat Index: 89°   Visibility: 6mi
Dew Point: 64°   Wind: 7mph
Humidity: 46%   Direction: 200°SSW
Pressure: 29.91"   Gusts: NA
Location:  23.4°S, 45.66°W
Report Text: SBSJ 221700Z 20006KT CAVOK 31/18 Q1013
Loading
Personal Weather Stations






























Interactive Weather Map New forecast layout! Learn more

10-Day Weather Forecast

Advertisements
Track Severe Weather on mobile